Time;durP1;ratioP1;P1;durP2;ratioP2;P2;SDS_P1;SDS_P2;PMS_P1;PMS_P2;Temp;Humidity;BMP_temperature;BMP_pressure;BME280_temperature;BME280_humidity;BME280_pressure;Samples;Min_cycle;Max_cycle;Signal;HPM_P1;HPM_P2
2022/05/16 00:00:16;;;;;;;4.97;3.10;;;;;;;;;;4984129;28;20190;-73
2022/05/16 00:02:41;;;;;;;6.53;3.07;;;;;;;;;;4980165;28;20197;-74
2022/05/16 00:05:08;;;;;;;3.83;3.47;;;;;;;;;;4980360;28;20244;-73
2022/05/16 00:07:34;;;;;;;6.50;3.00;;;;;;;;;;4978997;28;20186;-73
2022/05/16 00:10:00;;;;;;;3.73;3.33;;;;;;;;;;4980295;28;20215;-73
2022/05/16 00:12:26;;;;;;;4.53;3.37;;;;;;;;;;4975879;28;20253;-73
2022/05/16 00:14:52;;;;;;;5.40;3.10;;;;;;;;;;4972478;28;20195;-73
2022/05/16 00:17:18;;;;;;;4.97;3.10;;;;;;;;;;4980855;28;20651;-73
2022/05/16 00:19:44;;;;;;;4.43;3.40;;;;;;;;;;4973618;28;20191;-73
2022/05/16 00:22:10;;;;;;;4.10;3.57;;;;;;;;;;4974505;28;20193;-73
2022/05/16 00:24:38;;;;;;;4.20;3.27;;;;;;;;;;4971805;28;20209;-73
2022/05/16 00:27:04;;;;;;;5.00;3.20;;;;;;;;;;4971726;28;20250;-73
2022/05/16 00:29:30;;;;;;;4.30;3.20;;;;;;;;;;4976498;28;20630;-73
2022/05/16 00:31:56;;;;;;;3.37;3.07;;;;;;;;;;4980829;28;20196;-73
2022/05/16 00:34:22;;;;;;;8.17;3.43;;;;;;;;;;4982217;28;20190;-73
2022/05/16 00:36:48;;;;;;;6.23;3.63;;;;;;;;;;4984140;28;20195;-73
2022/05/16 00:39:15;;;;;;;6.00;3.40;;;;;;;;;;4981875;28;20660;-73
2022/05/16 00:41:42;;;;;;;7.57;3.70;;;;;;;;;;4976307;28;20193;-73
2022/05/16 00:44:08;;;;;;;4.23;3.63;;;;;;;;;;4980871;28;20186;-73
2022/05/16 00:46:33;;;;;;;5.80;3.20;;;;;;;;;;4962805;28;20721;-73
2022/05/16 00:49:00;;;;;;;5.23;3.30;;;;;;;;;;4956494;28;20201;-74
2022/05/16 00:51:28;;;;;;;5.03;3.57;;;;;;;;;;4977815;28;20235;-73
2022/05/16 00:53:56;;;;;;;7.43;3.57;;;;;;;;;;4981042;28;20223;-73
2022/05/16 00:56:23;;;;;;;6.17;3.33;;;;;;;;;;4984511;28;20181;-74
2022/05/16 00:58:49;;;;;;;5.17;3.20;;;;;;;;;;4981225;28;20200;-73
2022/05/16 01:06:44;;;;;;;4.27;3.00;;;;;;;;;;4963504;28;20205;-73
2022/05/16 01:09:10;;;;;;;3.40;3.10;;;;;;;;;;4982157;28;20568;-73
2022/05/16 01:11:36;;;;;;;6.10;3.30;;;;;;;;;;4992469;28;20243;-73
2022/05/16 01:14:02;;;;;;;3.93;3.13;;;;;;;;;;4975476;28;20636;-73
2022/05/16 01:16:28;;;;;;;8.40;3.37;;;;;;;;;;4966641;28;20221;-73
2022/05/16 01:18:54;;;;;;;5.57;3.23;;;;;;;;;;4973452;28;20269;-73
2022/05/16 01:21:26;;;;;;;7.70;3.10;;;;;;;;;;4975702;28;20186;-74
2022/05/16 01:24:03;;;;;;;3.60;3.30;;;;;;;;;;4977331;28;20202;-73
2022/05/16 01:26:29;;;;;;;4.90;3.07;;;;;;;;;;4975503;28;20548;-73
2022/05/16 01:28:55;;;;;;;5.57;3.17;;;;;;;;;;4974354;28;20535;-73
2022/05/16 01:31:21;;;;;;;5.33;3.20;;;;;;;;;;4977708;28;20791;-73
2022/05/16 01:33:47;;;;;;;4.03;2.90;;;;;;;;;;4973286;28;20255;-73
2022/05/16 01:36:13;;;;;;;3.17;2.87;;;;;;;;;;4976954;28;20190;-73
2022/05/16 01:38:40;;;;;;;5.63;3.30;;;;;;;;;;4965625;28;20308;-73
2022/05/16 01:41:07;;;;;;;5.23;3.13;;;;;;;;;;4971891;28;20185;-74
2022/05/16 01:43:35;;;;;;;4.57;3.00;;;;;;;;;;4976829;28;20209;-72
2022/05/16 01:46:01;;;;;;;8.23;3.87;;;;;;;;;;4981523;28;20218;-73
2022/05/16 01:48:30;;;;;;;4.23;2.90;;;;;;;;;;4988758;28;20277;-73
2022/05/16 01:50:57;;;;;;;4.30;3.20;;;;;;;;;;4982381;28;20193;-73
2022/05/16 01:53:23;;;;;;;6.17;3.23;;;;;;;;;;4986010;28;20224;-73
2022/05/16 01:55:49;;;;;;;5.33;3.07;;;;;;;;;;4957696;28;20739;-73
2022/05/16 01:58:15;;;;;;;3.63;3.00;;;;;;;;;;4954990;28;20204;-73
2022/05/16 02:00:41;;;;;;;6.30;3.13;;;;;;;;;;4968833;28;20191;-74
2022/05/16 02:03:07;;;;;;;5.90;3.40;;;;;;;;;;4966625;28;20694;-73
2022/05/16 02:05:33;;;;;;;7.00;3.10;;;;;;;;;;4980374;28;20202;-74
2022/05/16 02:07:59;;;;;;;6.10;3.20;;;;;;;;;;4983664;28;20216;-73
2022/05/16 02:10:25;;;;;;;4.73;3.00;;;;;;;;;;4988481;28;20189;-74
2022/05/16 02:12:52;;;;;;;3.77;3.33;;;;;;;;;;4984419;28;21165;-73
2022/05/16 02:15:19;;;;;;;4.37;3.50;;;;;;;;;;4973942;28;20194;-74
2022/05/16 02:17:45;;;;;;;3.23;2.93;;;;;;;;;;4962234;28;20190;-72
2022/05/16 02:20:11;;;;;;;5.40;3.47;;;;;;;;;;4980357;28;20220;-74
2022/05/16 02:25:22;;;;;;;3.40;3.10;;;;;;;;;;4993409;28;20269;-74
2022/05/16 02:27:51;;;;;;;4.10;2.97;;;;;;;;;;4967990;28;20202;-73
2022/05/16 02:30:17;;;;;;;3.80;3.10;;;;;;;;;;4976345;28;20222;-73
2022/05/16 02:32:43;;;;;;;3.93;3.40;;;;;;;;;;4969754;28;20217;-73
2022/05/16 02:35:09;;;;;;;4.13;3.67;;;;;;;;;;4978653;28;20189;-73
2022/05/16 02:37:36;;;;;;;5.27;3.17;;;;;;;;;;4980012;28;20198;-73
2022/05/16 02:40:01;;;;;;;4.57;3.23;;;;;;;;;;4985223;28;20646;-73
2022/05/16 02:42:27;;;;;;;3.60;2.97;;;;;;;;;;4979508;28;20225;-73
2022/05/16 02:44:53;;;;;;;5.27;3.77;;;;;;;;;;4962900;28;20222;-72
2022/05/16 02:47:20;;;;;;;4.20;3.17;;;;;;;;;;4977926;28;20400;-72
2022/05/16 02:49:46;;;;;;;4.90;2.93;;;;;;;;;;4974312;28;20202;-72
2022/05/16 02:52:12;;;;;;;4.70;3.10;;;;;;;;;;4966545;28;20543;-73
2022/05/16 02:54:38;;;;;;;5.07;3.33;;;;;;;;;;4985060;28;20181;-73
2022/05/16 02:57:04;;;;;;;3.50;3.20;;;;;;;;;;4986171;28;20307;-73
2022/05/16 02:59:33;;;;;;;5.93;3.27;;;;;;;;;;4984279;28;21133;-73
2022/05/16 03:02:03;;;;;;;4.67;3.83;;;;;;;;;;4986274;28;20189;-73
2022/05/16 03:04:29;;;;;;;4.47;3.30;;;;;;;;;;4984910;28;20229;-74
2022/05/16 03:06:55;;;;;;;5.47;3.47;;;;;;;;;;4984410;28;20235;-73
2022/05/16 03:09:21;;;;;;;8.20;3.27;;;;;;;;;;4986522;28;20186;-73
2022/05/16 03:11:47;;;;;;;5.47;3.17;;;;;;;;;;4980785;28;20190;-73
2022/05/16 03:14:13;;;;;;;4.57;3.30;;;;;;;;;;4965587;28;20229;-73
2022/05/16 03:16:39;;;;;;;6.13;3.53;;;;;;;;;;4985092;28;20243;-74
2022/05/16 03:19:05;;;;;;;5.53;3.37;;;;;;;;;;4986770;28;20553;-73
2022/05/16 03:21:31;;;;;;;6.23;3.80;;;;;;;;;;4983813;28;22460;-73
2022/05/16 03:23:57;;;;;;;3.80;3.40;;;;;;;;;;4984082;28;20280;-73
2022/05/16 03:26:23;;;;;;;4.87;3.80;;;;;;;;;;4986839;28;20699;-73
2022/05/16 03:28:49;;;;;;;4.97;3.60;;;;;;;;;;4979570;28;20194;-73
2022/05/16 03:31:15;;;;;;;4.23;3.37;;;;;;;;;;4983326;28;20198;-73
2022/05/16 03:33:41;;;;;;;4.63;3.70;;;;;;;;;;4986128;28;20572;-73
2022/05/16 03:36:07;;;;;;;4.77;3.53;;;;;;;;;;4993523;28;20186;-73
2022/05/16 03:41:18;;;;;;;7.00;3.80;;;;;;;;;;4982583;28;20193;-73
2022/05/16 03:43:44;;;;;;;5.47;3.80;;;;;;;;;;4984398;28;20194;-74
2022/05/16 03:46:10;;;;;;;5.67;4.07;;;;;;;;;;4979102;28;20272;-73
2022/05/16 03:48:36;;;;;;;6.80;3.97;;;;;;;;;;4989197;28;20679;-73
2022/05/16 03:51:02;;;;;;;6.67;3.50;;;;;;;;;;4977566;28;20198;-73
2022/05/16 03:53:28;;;;;;;5.77;3.90;;;;;;;;;;4986677;28;20928;-73
2022/05/16 03:55:54;;;;;;;4.20;3.70;;;;;;;;;;4985256;28;20201;-73
2022/05/16 03:58:20;;;;;;;5.73;3.63;;;;;;;;;;4984686;28;20178;-73
2022/05/16 04:00:46;;;;;;;6.23;3.40;;;;;;;;;;4983896;28;20213;-73
2022/05/16 04:03:12;;;;;;;4.90;3.67;;;;;;;;;;4982186;28;20400;-73
2022/05/16 04:05:38;;;;;;;4.33;3.70;;;;;;;;;;4980654;28;20207;-73
2022/05/16 04:08:04;;;;;;;10.27;3.50;;;;;;;;;;4984660;28;22850;-73
2022/05/16 04:10:30;;;;;;;6.57;3.70;;;;;;;;;;4988716;28;20205;-73
2022/05/16 04:12:57;;;;;;;5.10;3.70;;;;;;;;;;4987336;28;20241;-74
2022/05/16 04:15:23;;;;;;;3.60;3.10;;;;;;;;;;4995147;28;20193;-73
2022/05/16 04:17:49;;;;;;;4.73;3.50;;;;;;;;;;4974561;28;20236;-73
2022/05/16 04:20:15;;;;;;;6.47;3.63;;;;;;;;;;4971442;28;20197;-73
2022/05/16 04:22:42;;;;;;;4.30;3.33;;;;;;;;;;4980736;28;20241;-73
2022/05/16 04:25:08;;;;;;;4.93;3.23;;;;;;;;;;4991426;28;21298;-73
2022/05/16 04:27:34;;;;;;;5.57;3.63;;;;;;;;;;4979112;28;20190;-73
2022/05/16 04:30:00;;;;;;;5.67;3.67;;;;;;;;;;4974489;28;21341;-73
2022/05/16 04:32:26;;;;;;;6.27;3.73;;;;;;;;;;4984731;28;20217;-73
2022/05/16 04:34:52;;;;;;;3.93;3.57;;;;;;;;;;4982233;28;20201;-74
2022/05/16 04:37:18;;;;;;;5.70;3.97;;;;;;;;;;4963554;28;21753;-73
2022/05/16 04:39:44;;;;;;;8.43;3.83;;;;;;;;;;4958789;28;20181;-73
2022/05/16 04:44:54;;;;;;;6.67;4.03;;;;;;;;;;4983572;28;20674;-74
2022/05/16 04:47:20;;;;;;;4.33;3.47;;;;;;;;;;4976532;28;20194;-74
2022/05/16 04:49:46;;;;;;;7.03;3.67;;;;;;;;;;4966602;28;20201;-74
2022/05/16 04:52:12;;;;;;;5.40;3.80;;;;;;;;;;4971081;28;20197;-74
2022/05/16 04:54:40;;;;;;;4.43;3.30;;;;;;;;;;4947091;28;20202;-74
2022/05/16 04:57:06;;;;;;;5.30;3.30;;;;;;;;;;4959091;28;21054;-74
2022/05/16 04:59:32;;;;;;;6.90;3.90;;;;;;;;;;4966099;28;20194;-70
2022/05/16 05:01:58;;;;;;;6.57;4.40;;;;;;;;;;4973523;28;20259;-70
2022/05/16 05:04:24;;;;;;;5.70;3.73;;;;;;;;;;4968876;28;21124;-72
2022/05/16 05:06:50;;;;;;;11.03;4.53;;;;;;;;;;4965778;28;20198;-70
2022/05/16 05:09:16;;;;;;;9.33;4.00;;;;;;;;;;4972490;28;20674;-71
2022/05/16 05:14:32;;;;;;;9.40;4.23;;;;;;;;;;4990115;28;20306;-70
2022/05/16 05:17:02;;;;;;;7.53;4.37;;;;;;;;;;4995993;28;20178;-71
2022/05/16 05:19:28;;;;;;;6.77;4.40;;;;;;;;;;4992156;28;20217;-70
2022/05/16 05:21:54;;;;;;;6.30;4.17;;;;;;;;;;4993106;28;20218;-70
2022/05/16 05:24:20;;;;;;;7.97;4.63;;;;;;;;;;4996450;28;20201;-70
2022/05/16 05:26:47;;;;;;;5.37;3.53;;;;;;;;;;4988047;28;20190;-73
2022/05/16 05:29:13;;;;;;;7.30;3.87;;;;;;;;;;4991555;28;20682;-72
2022/05/16 05:31:41;;;;;;;4.77;3.17;;;;;;;;;;4993023;28;20189;-73
2022/05/16 05:34:08;;;;;;;4.37;3.27;;;;;;;;;;4973154;28;20240;-73
2022/05/16 05:36:34;;;;;;;4.83;3.40;;;;;;;;;;5002935;28;20213;-73
2022/05/16 05:39:01;;;;;;;7.53;3.50;;;;;;;;;;4996836;28;20190;-73
2022/05/16 05:41:27;;;;;;;4.80;3.43;;;;;;;;;;4991115;28;20233;-73
2022/05/16 05:43:53;;;;;;;7.30;3.80;;;;;;;;;;4995615;28;20213;-73
2022/05/16 05:46:19;;;;;;;7.87;3.47;;;;;;;;;;4994361;28;20190;-73
2022/05/16 05:48:45;;;;;;;5.73;3.33;;;;;;;;;;4994500;28;20193;-73
2022/05/16 05:51:11;;;;;;;6.33;3.70;;;;;;;;;;5004846;28;20194;-73
2022/05/16 05:53:37;;;;;;;4.67;3.30;;;;;;;;;;4995572;28;20757;-73
2022/05/16 05:56:04;;;;;;;5.77;3.43;;;;;;;;;;4997852;28;20265;-73
2022/05/16 05:58:32;;;;;;;4.73;3.17;;;;;;;;;;4994589;28;20236;-73
2022/05/16 06:00:58;;;;;;;5.07;3.40;;;;;;;;;;5000043;28;20233;-74
2022/05/16 06:03:24;;;;;;;9.10;4.20;;;;;;;;;;4999712;28;20312;-74
2022/05/16 06:05:50;;;;;;;8.13;3.63;;;;;;;;;;5002274;28;20232;-73
2022/05/16 06:08:16;;;;;;;6.30;3.80;;;;;;;;;;4994508;28;20205;-73
2022/05/16 06:10:42;;;;;;;5.13;3.63;;;;;;;;;;4996969;28;20264;-73
2022/05/16 06:13:08;;;;;;;6.57;3.87;;;;;;;;;;5002393;28;20221;-73
2022/05/16 06:15:34;;;;;;;7.23;3.83;;;;;;;;;;5000587;28;20186;-73
2022/05/16 06:18:00;;;;;;;4.83;3.60;;;;;;;;;;4996084;28;20190;-73
2022/05/16 06:20:26;;;;;;;5.60;3.70;;;;;;;;;;4994633;28;20190;-73
2022/05/16 06:22:52;;;;;;;5.83;3.90;;;;;;;;;;4993777;28;20194;-74
2022/05/16 06:28:23;;;;;;;6.97;4.00;;;;;;;;;;4990995;28;20266;-73
2022/05/16 06:30:51;;;;;;;7.43;3.80;;;;;;;;;;4999612;28;20198;-73
2022/05/16 06:33:17;;;;;;;7.03;4.57;;;;;;;;;;5003078;28;20755;-73
2022/05/16 06:35:43;;;;;;;5.97;3.83;;;;;;;;;;4996902;28;20260;-74
2022/05/16 06:38:13;;;;;;;6.10;4.23;;;;;;;;;;5003022;28;20674;-74
2022/05/16 06:40:39;;;;;;;7.53;3.50;;;;;;;;;;4996390;28;20269;-73
2022/05/16 06:43:05;;;;;;;5.93;3.87;;;;;;;;;;4978421;28;20194;-73
2022/05/16 06:45:31;;;;;;;8.40;3.97;;;;;;;;;;4995347;28;20205;-73
2022/05/16 06:47:57;;;;;;;6.43;3.70;;;;;;;;;;5000560;28;20194;-73
2022/05/16 06:50:23;;;;;;;6.77;3.63;;;;;;;;;;4999342;28;20205;-73
2022/05/16 06:52:49;;;;;;;5.27;3.70;;;;;;;;;;4998082;28;20221;-74
2022/05/16 06:55:15;;;;;;;4.90;4.00;;;;;;;;;;5002362;28;20675;-73
2022/05/16 06:57:41;;;;;;;6.73;3.60;;;;;;;;;;5003984;28;20214;-73
2022/05/16 07:00:07;;;;;;;5.27;3.67;;;;;;;;;;4979688;28;20193;-73
2022/05/16 07:02:33;;;;;;;8.70;4.17;;;;;;;;;;4995459;28;20201;-73
2022/05/16 07:05:00;;;;;;;5.37;3.23;;;;;;;;;;4992146;28;20234;-73
2022/05/16 07:07:26;;;;;;;4.93;3.23;;;;;;;;;;5002774;28;20221;-73
2022/05/16 07:09:51;;;;;;;12.03;4.20;;;;;;;;;;4997441;28;20281;-73
2022/05/16 07:12:17;;;;;;;5.77;3.57;;;;;;;;;;4997701;28;20267;-73
2022/05/16 07:14:45;;;;;;;10.13;3.73;;;;;;;;;;4991946;28;20990;-73
2022/05/16 07:17:11;;;;;;;9.33;3.87;;;;;;;;;;5001463;28;20198;-73
2022/05/16 07:19:37;;;;;;;6.03;3.27;;;;;;;;;;4985872;28;20293;-73
2022/05/16 07:22:03;;;;;;;10.73;3.90;;;;;;;;;;4968980;28;20194;-73
2022/05/16 07:24:30;;;;;;;7.80;3.37;;;;;;;;;;4996352;28;20210;-73
2022/05/16 07:29:40;;;;;;;6.47;3.80;;;;;;;;;;4995929;28;20809;-73
2022/05/16 07:32:08;;;;;;;8.27;3.97;;;;;;;;;;4970022;28;21053;-73
2022/05/16 07:34:34;;;;;;;7.00;3.77;;;;;;;;;;4994469;28;20214;-73
2022/05/16 07:37:00;;;;;;;6.43;3.60;;;;;;;;;;4995013;28;20190;-74
2022/05/16 07:39:26;;;;;;;7.90;3.80;;;;;;;;;;4996576;28;20194;-73
2022/05/16 07:41:54;;;;;;;8.30;3.80;;;;;;;;;;4993709;28;20191;-73
2022/05/16 07:44:20;;;;;;;7.30;4.00;;;;;;;;;;4993790;28;20833;-73
2022/05/16 07:46:46;;;;;;;8.60;4.00;;;;;;;;;;4997913;28;20276;-73
2022/05/16 07:49:13;;;;;;;7.50;3.70;;;;;;;;;;4994548;28;20237;-73
2022/05/16 07:51:39;;;;;;;6.97;3.97;;;;;;;;;;4996346;28;20240;-73
2022/05/16 07:54:05;;;;;;;7.53;3.60;;;;;;;;;;4981273;28;20876;-73
2022/05/16 07:56:32;;;;;;;8.23;3.67;;;;;;;;;;4990775;28;20182;-73
2022/05/16 07:58:58;;;;;;;8.03;3.50;;;;;;;;;;5002157;28;20297;-73
2022/05/16 08:01:24;;;;;;;7.10;3.97;;;;;;;;;;4995663;28;20281;-72
2022/05/16 08:03:50;;;;;;;5.53;3.60;;;;;;;;;;4983180;28;21092;-73
2022/05/16 08:06:16;;;;;;;6.43;4.03;;;;;;;;;;4987862;28;20194;-73
2022/05/16 08:11:27;;;;;;;6.63;3.80;;;;;;;;;;5001569;28;20224;-73
2022/05/16 08:13:53;;;;;;;7.17;3.50;;;;;;;;;;4996511;28;20218;-73
2022/05/16 08:16:18;;;;;;;6.07;3.67;;;;;;;;;;4991266;28;20199;-73
2022/05/16 08:18:44;;;;;;;5.83;3.70;;;;;;;;;;4993575;28;20174;-73
2022/05/16 08:21:10;;;;;;;7.10;4.10;;;;;;;;;;4993720;28;20194;-73
2022/05/16 08:23:36;;;;;;;7.20;3.50;;;;;;;;;;4994829;28;20742;-73
2022/05/16 08:26:04;;;;;;;8.15;4.00;;;;;;;;;;4995633;28;20285;-73
2022/05/16 08:28:30;;;;;;;7.57;4.03;;;;;;;;;;4995615;28;20216;-73
2022/05/16 08:30:56;;;;;;;9.57;4.00;;;;;;;;;;4996969;28;20202;-73
2022/05/16 08:33:22;;;;;;;7.95;3.85;;;;;;;;;;4996403;28;25198;-73
2022/05/16 08:39:52;;;;;;;5.35;3.75;;;;;;;;;;4997319;28;20537;-73
2022/05/16 08:41:18;;;;;;;6.38;3.47;;;;;;;;;;4993329;28;20185;-73
2022/05/16 08:43:50;;;;;;;7.45;4.30;;;;;;;;;;4993370;28;20242;-73
2022/05/16 08:46:25;;;;;;;6.88;3.65;;;;;;;;;;4994769;28;20185;-74
2022/05/16 08:48:54;;;;;;;5.47;3.67;;;;;;;;;;4995810;28;20190;-73
2022/05/16 08:51:20;;;;;;;7.63;3.78;;;;;;;;;;4976697;28;20194;-74
2022/05/16 08:54:02;;;;;;;7.72;3.70;;;;;;;;;;4996124;28;20252;-74
2022/05/16 08:56:29;;;;;;;9.10;4.20;;;;;;;;;;4996027;28;20186;-73
2022/05/16 08:59:02;;;;;;;10.63;4.13;;;;;;;;;;4996187;28;20194;-74
2022/05/16 09:01:32;;;;;;;6.93;3.78;;;;;;;;;;4990864;28;20188;-74
2022/05/16 09:04:01;;;;;;;6.97;3.80;;;;;;;;;;4984966;28;20230;-75
2022/05/16 09:06:35;;;;;;;9.07;3.55;;;;;;;;;;4977017;28;20193;-74
2022/05/16 09:09:04;;;;;;;8.23;4.07;;;;;;;;;;4990518;28;20260;-74
2022/05/16 09:11:49;;;;;;;5.90;3.80;;;;;;;;;;4993438;28;20212;-74
2022/05/16 09:14:21;;;;;;;5.40;3.70;;;;;;;;;;4993389;28;20578;-74
2022/05/16 09:16:55;;;;;;;9.30;3.60;;;;;;;;;;4996194;28;20193;-74
2022/05/16 09:19:30;;;;;;;6.32;3.58;;;;;;;;;;4992522;28;20284;-74
2022/05/16 09:22:08;;;;;;;4.30;3.38;;;;;;;;;;4992293;28;20272;-74
2022/05/16 09:24:36;;;;;;;5.30;3.60;;;;;;;;;;4996201;28;20196;-74
2022/05/16 09:27:08;;;;;;;6.07;3.00;;;;;;;;;;4993330;28;20220;-74
2022/05/16 09:29:39;;;;;;;5.13;3.50;;;;;;;;;;4992355;28;20189;-74
2022/05/16 09:32:07;;;;;;;6.50;3.50;;;;;;;;;;4993240;28;20648;-74
2022/05/16 09:34:33;;;;;;;7.20;3.17;;;;;;;;;;4993122;28;20271;-75
2022/05/16 09:36:59;;;;;;;5.88;3.00;;;;;;;;;;4994203;28;20186;-75
2022/05/16 09:39:26;;;;;;;3.45;2.65;;;;;;;;;;4994683;28;20194;-75
2022/05/16 09:41:56;;;;;;;7.70;2.90;;;;;;;;;;4990113;28;20558;-74
2022/05/16 09:44:23;;;;;;;6.60;3.00;;;;;;;;;;4996872;28;20221;-74
2022/05/16 09:46:49;;;;;;;4.55;2.95;;;;;;;;;;4988792;28;20182;-74
2022/05/16 09:49:15;;;;;;;3.63;2.72;;;;;;;;;;4988946;28;21110;-74
2022/05/16 09:51:46;;;;;;;6.72;3.40;;;;;;;;;;4991445;28;20550;-76
2022/05/16 09:54:13;;;;;;;5.43;3.25;;;;;;;;;;4996889;28;20823;-75
2022/05/16 09:56:39;;;;;;;7.03;3.25;;;;;;;;;;4989780;28;20194;-76
2022/05/16 09:59:06;;;;;;;6.10;3.42;;;;;;;;;;4976258;28;20185;-75
2022/05/16 10:01:38;;;;;;;5.25;3.30;;;;;;;;;;4988131;28;21837;-75
2022/05/16 10:04:12;;;;;;;5.88;3.45;;;;;;;;;;4991541;28;20228;-75
2022/05/16 10:06:41;;;;;;;8.23;3.40;;;;;;;;;;4989405;28;20687;-74
2022/05/16 10:09:14;;;;;;;6.43;3.33;;;;;;;;;;4994951;28;20189;-74
2022/05/16 10:11:40;;;;;;;5.88;2.83;;;;;;;;;;4991132;28;20301;-74
2022/05/16 10:14:06;;;;;;;6.10;2.88;;;;;;;;;;4990121;28;20690;-74
2022/05/16 10:16:32;;;;;;;5.85;2.80;;;;;;;;;;4991526;28;20186;-74
2022/05/16 10:19:04;;;;;;;6.28;2.90;;;;;;;;;;4995078;28;20261;-74
2022/05/16 10:21:35;;;;;;;5.45;2.58;;;;;;;;;;4994452;28;20687;-75
2022/05/16 10:24:01;;;;;;;3.72;2.67;;;;;;;;;;4998543;28;20265;-74
2022/05/16 10:26:30;;;;;;;7.95;2.85;;;;;;;;;;4992042;28;20244;-75
2022/05/16 10:29:08;;;;;;;7.93;2.80;;;;;;;;;;4992792;28;20193;-74
2022/05/16 10:34:23;;;;;;;8.18;3.10;;;;;;;;;;4992607;28;20621;-74
2022/05/16 10:36:51;;;;;;;7.65;2.97;;;;;;;;;;4996751;28;20197;-75
2022/05/16 10:39:18;;;;;;;5.28;2.95;;;;;;;;;;4984127;28;20194;-75
2022/05/16 10:41:56;;;;;;;6.15;3.10;;;;;;;;;;5001055;28;20545;-76
2022/05/16 10:44:30;;;;;;;4.95;2.60;;;;;;;;;;4991282;28;20212;-74
2022/05/16 10:46:59;;;;;;;5.35;2.80;;;;;;;;;;4995329;28;20650;-74
2022/05/16 10:49:25;;;;;;;6.03;2.53;;;;;;;;;;4994695;28;20201;-74
2022/05/16 10:51:54;;;;;;;4.15;2.55;;;;;;;;;;4997516;28;20252;-75
2022/05/16 10:54:21;;;;;;;5.53;2.55;;;;;;;;;;4998729;28;20540;-74
2022/05/16 10:56:48;;;;;;;6.50;2.70;;;;;;;;;;4989275;28;20193;-74
2022/05/16 10:59:33;;;;;;;4.68;2.40;;;;;;;;;;4999069;28;20189;-74
2022/05/16 11:02:08;;;;;;;5.15;2.80;;;;;;;;;;4992846;28;20193;-74
2022/05/16 11:04:53;;;;;;;4.75;2.65;;;;;;;;;;5011914;28;20241;-74
2022/05/16 11:07:31;;;;;;;5.35;3.10;;;;;;;;;;4995973;28;20306;-74
2022/05/16 11:10:00;;;;;;;2.78;2.40;;;;;;;;;;4991482;28;20739;-74
2022/05/16 11:12:29;;;;;;;5.22;3.20;;;;;;;;;;4970164;28;20243;-74
2022/05/16 11:15:01;;;;;;;5.63;2.75;;;;;;;;;;5013559;28;20194;-74
2022/05/16 11:17:39;;;;;;;5.38;2.67;;;;;;;;;;4996368;28;20186;-74
2022/05/16 11:20:08;;;;;;;5.80;2.80;;;;;;;;;;4996511;28;20272;-74
2022/05/16 11:23:00;;;;;;;6.13;3.05;;;;;;;;;;5002221;28;20167;-74
2022/05/16 11:25:45;;;;;;;6.70;3.25;;;;;;;;;;4997180;28;20225;-74
2022/05/16 11:28:13;;;;;;;4.72;2.95;;;;;;;;;;4995116;28;20289;-74
2022/05/16 11:30:39;;;;;;;8.82;3.03;;;;;;;;;;4992658;28;20190;-74
2022/05/16 11:33:23;;;;;;;5.70;2.85;;;;;;;;;;4997994;28;20632;-74
2022/05/16 11:35:59;;;;;;;4.55;3.03;;;;;;;;;;4991188;28;20268;-73
2022/05/16 11:38:44;;;;;;;4.13;3.03;;;;;;;;;;4994446;28;20189;-73
2022/05/16 11:41:10;;;;;;;4.38;2.90;;;;;;;;;;4996930;28;20205;-73
2022/05/16 11:43:38;;;;;;;4.30;2.92;;;;;;;;;;4994271;28;20186;-73
2022/05/16 11:46:04;;;;;;;9.38;3.22;;;;;;;;;;4995839;28;20205;-75
2022/05/16 11:48:44;;;;;;;8.23;3.97;;;;;;;;;;4992329;28;20198;-75
2022/05/16 11:51:36;;;;;;;7.25;3.33;;;;;;;;;;5002479;28;20190;-74
2022/05/16 11:54:02;;;;;;;9.35;3.97;;;;;;;;;;4994952;28;20584;-74
2022/05/16 12:02:20;;;;;;;7.90;4.30;;;;;;;;;;4994373;28;20228;-75
2022/05/16 12:04:51;;;;;;;8.15;3.72;;;;;;;;;;4994094;28;20254;-75
2022/05/16 12:07:21;;;;;;;9.93;3.95;;;;;;;;;;4995720;28;20277;-75
2022/05/16 12:09:52;;;;;;;6.57;3.55;;;;;;;;;;4976898;28;20233;-75
2022/05/16 12:12:31;;;;;;;11.13;4.15;;;;;;;;;;4987788;28;20190;-75
2022/05/16 12:15:21;;;;;;;8.48;4.03;;;;;;;;;;4985942;28;20265;-73
2022/05/16 12:17:51;;;;;;;5.47;3.67;;;;;;;;;;4988524;28;20194;-74
2022/05/16 12:20:17;;;;;;;5.03;3.78;;;;;;;;;;4993824;28;20549;-74
2022/05/16 12:22:44;;;;;;;7.38;3.80;;;;;;;;;;4995327;28;20190;-74
2022/05/16 12:25:11;;;;;;;12.10;4.38;;;;;;;;;;4991722;28;20186;-74
2022/05/16 12:27:39;;;;;;;20.17;5.30;;;;;;;;;;4996406;28;20185;-74
2022/05/16 12:30:08;;;;;;;20.00;5.82;;;;;;;;;;4994787;28;20178;-74
2022/05/16 12:32:34;;;;;;;11.07;5.10;;;;;;;;;;4996423;28;20286;-75
2022/05/16 12:35:04;;;;;;;8.35;5.53;;;;;;;;;;4985221;28;20189;-75
2022/05/16 12:37:30;;;;;;;12.25;4.60;;;;;;;;;;4971843;28;20186;-75
2022/05/16 12:40:23;;;;;;;10.25;5.72;;;;;;;;;;4979178;28;20199;-75
2022/05/16 12:42:49;;;;;;;10.18;4.80;;;;;;;;;;4966551;28;20264;-74
2022/05/16 12:45:30;;;;;;;15.05;5.13;;;;;;;;;;4993091;28;20318;-73
2022/05/16 12:48:02;;;;;;;11.45;5.07;;;;;;;;;;4994500;28;20186;-75
2022/05/16 12:50:28;;;;;;;12.93;5.45;;;;;;;;;;4994507;28;20198;-75
2022/05/16 12:52:54;;;;;;;15.73;5.47;;;;;;;;;;4992570;28;20243;-75
2022/05/16 12:55:39;;;;;;;11.57;5.50;;;;;;;;;;4988044;28;20258;-74
2022/05/16 12:58:13;;;;;;;12.23;6.63;;;;;;;;;;4996696;28;21126;-74
2022/05/16 13:00:41;;;;;;;11.38;5.88;;;;;;;;;;4994369;28;20185;-73
2022/05/16 13:03:18;;;;;;;20.00;5.75;;;;;;;;;;4982815;28;20213;-75
2022/05/16 13:05:47;;;;;;;10.02;5.15;;;;;;;;;;4987086;28;20239;-76
2022/05/16 13:08:33;;;;;;;9.88;5.53;;;;;;;;;;4982403;28;20187;-76
2022/05/16 13:11:21;;;;;;;10.20;5.72;;;;;;;;;;4972414;28;20186;-75
2022/05/16 13:13:47;;;;;;;10.85;5.05;;;;;;;;;;4981783;28;20721;-76
2022/05/16 13:16:32;;;;;;;6.78;5.22;;;;;;;;;;4983518;28;20194;-76
2022/05/16 13:18:59;;;;;;;13.48;5.70;;;;;;;;;;4985241;28;20189;-76
2022/05/16 13:21:33;;;;;;;11.77;5.13;;;;;;;;;;4989375;28;20225;-75
2022/05/16 13:23:58;;;;;;;8.93;4.75;;;;;;;;;;4988412;28;20197;-75
2022/05/16 13:29:21;;;;;;;8.77;4.90;;;;;;;;;;4992826;28;20204;-75
2022/05/16 13:31:48;;;;;;;8.05;5.82;;;;;;;;;;4984086;28;20208;-76
2022/05/16 13:34:16;;;;;;;5.90;5.30;;;;;;;;;;4988784;28;20209;-75
2022/05/16 13:36:46;;;;;;;7.53;5.13;;;;;;;;;;4986496;28;20243;-76
2022/05/16 13:39:13;;;;;;;9.48;5.35;;;;;;;;;;4981787;28;20198;-74
2022/05/16 13:41:39;;;;;;;6.50;5.32;;;;;;;;;;4974448;28;20307;-75
2022/05/16 13:44:05;;;;;;;8.40;5.22;;;;;;;;;;4977378;28;20545;-76
2022/05/16 13:46:33;;;;;;;8.68;5.70;;;;;;;;;;4969317;28;20189;-76
2022/05/16 13:49:04;;;;;;;11.10;6.50;;;;;;;;;;4975661;28;20493;-75
2022/05/16 13:51:30;;;;;;;12.57;6.47;;;;;;;;;;4953045;28;20186;-74
2022/05/16 13:53:57;;;;;;;8.90;5.53;;;;;;;;;;4968805;28;20293;-76
2022/05/16 13:56:35;;;;;;;9.18;5.13;;;;;;;;;;4974219;28;20655;-76
2022/05/16 13:59:01;;;;;;;5.90;5.38;;;;;;;;;;4969484;28;20292;-76
2022/05/16 14:01:27;;;;;;;9.90;6.10;;;;;;;;;;4984429;28;20203;-76
2022/05/16 14:03:59;;;;;;;8.18;5.80;;;;;;;;;;4991457;28;20324;-76
2022/05/16 14:06:42;;;;;;;7.50;5.18;;;;;;;;;;4989775;28;20205;-76
2022/05/16 14:09:20;;;;;;;7.60;5.13;;;;;;;;;;4995612;28;21439;-75
2022/05/16 14:11:46;;;;;;;11.07;4.85;;;;;;;;;;4997211;28;20207;-75
2022/05/16 14:14:13;;;;;;;7.05;4.90;;;;;;;;;;4993626;28;20211;-76
2022/05/16 14:16:39;;;;;;;9.65;4.80;;;;;;;;;;4987383;28;20243;-76
2022/05/16 14:19:10;;;;;;;7.10;4.50;;;;;;;;;;5002159;28;20674;-76
2022/05/16 14:21:56;;;;;;;6.65;4.18;;;;;;;;;;4987335;28;20181;-75
2022/05/16 14:24:31;;;;;;;5.78;4.03;;;;;;;;;;4991459;28;20185;-75
2022/05/16 14:26:57;;;;;;;8.75;4.22;;;;;;;;;;4988394;28;20189;-75
2022/05/16 14:29:23;;;;;;;7.22;4.25;;;;;;;;;;4987586;28;21016;-76
2022/05/16 14:31:52;;;;;;;7.78;3.97;;;;;;;;;;4990198;28;20195;-74
2022/05/16 14:34:25;;;;;;;9.15;4.20;;;;;;;;;;4989412;28;20268;-75
2022/05/16 14:36:52;;;;;;;5.10;3.65;;;;;;;;;;4965715;28;20201;-75
2022/05/16 14:39:22;;;;;;;6.93;4.30;;;;;;;;;;4988982;28;20276;-74
2022/05/16 14:42:15;;;;;;;7.18;4.10;;;;;;;;;;4985515;28;20217;-75
2022/05/16 14:44:42;;;;;;;6.43;4.32;;;;;;;;;;4974568;28;20281;-75
2022/05/16 14:47:22;;;;;;;6.90;4.30;;;;;;;;;;4991842;28;20186;-75
2022/05/16 14:49:48;;;;;;;6.57;4.50;;;;;;;;;;4981059;28;20293;-73
2022/05/16 14:52:15;;;;;;;7.82;4.00;;;;;;;;;;4991861;28;20686;-75
2022/05/16 14:54:48;;;;;;;6.70;4.25;;;;;;;;;;4979651;28;20202;-75
2022/05/16 14:57:14;;;;;;;7.65;3.92;;;;;;;;;;4987810;28;20186;-75
2022/05/16 14:59:40;;;;;;;7.15;4.70;;;;;;;;;;4984674;28;21681;-75
2022/05/16 15:04:51;;;;;;;5.68;4.47;;;;;;;;;;4982060;28;20247;-75
2022/05/16 15:07:17;;;;;;;8.27;4.65;;;;;;;;;;4972032;28;20568;-75
2022/05/16 15:09:44;;;;;;;6.22;4.72;;;;;;;;;;4975050;28;20872;-76
2022/05/16 15:12:11;;;;;;;6.35;4.55;;;;;;;;;;4993288;28;21073;-75
2022/05/16 15:14:37;;;;;;;5.35;4.32;;;;;;;;;;4982628;28;20225;-75
2022/05/16 15:17:07;;;;;;;6.55;4.50;;;;;;;;;;4988535;28;20217;-75
2022/05/16 15:19:33;;;;;;;8.07;4.85;;;;;;;;;;4986968;28;20194;-75
2022/05/16 15:21:59;;;;;;;6.65;4.72;;;;;;;;;;4989061;28;20336;-75
2022/05/16 15:24:29;;;;;;;6.85;5.30;;;;;;;;;;4986693;28;20193;-75
2022/05/16 15:26:55;;;;;;;6.03;5.00;;;;;;;;;;4985140;28;20190;-73
2022/05/16 15:29:21;;;;;;;13.57;5.47;;;;;;;;;;4982709;28;20189;-74